createdAt,value
2019-03-13T00:01:38.463Z,1.70
2019-03-13T00:04:07.075Z,2.40
2019-03-13T00:06:35.635Z,2.10
2019-03-13T00:09:05.543Z,1.67
2019-03-13T00:11:34.062Z,1.73
2019-03-13T00:14:02.642Z,1.77
2019-03-13T00:16:31.372Z,1.90
2019-03-13T00:18:59.813Z,2.10
2019-03-13T00:21:28.439Z,1.93
2019-03-13T00:23:57.020Z,2.30
2019-03-13T00:26:25.515Z,1.70
2019-03-13T00:28:54.001Z,1.90
2019-03-13T00:31:22.625Z,2.00
2019-03-13T00:33:51.240Z,1.93
2019-03-13T00:36:19.861Z,1.70
2019-03-13T00:38:48.424Z,1.70
2019-03-13T00:41:16.977Z,1.70
2019-03-13T00:43:45.548Z,1.93
2019-03-13T00:46:14.162Z,1.93
2019-03-13T00:48:42.594Z,2.03
2019-03-13T00:51:11.117Z,1.93
2019-03-13T00:53:39.604Z,2.03
2019-03-13T00:56:08.229Z,1.87
2019-03-13T00:58:36.821Z,2.00
2019-03-13T01:01:17.850Z,2.13
2019-03-13T01:03:50.388Z,2.37
2019-03-13T01:06:22.554Z,2.23
2019-03-13T01:08:51.206Z,2.20
2019-03-13T01:11:19.772Z,2.00
2019-03-13T01:13:48.293Z,2.37
2019-03-13T01:16:16.916Z,2.27
2019-03-13T01:18:45.406Z,2.20
2019-03-13T01:21:14.167Z,2.37
2019-03-13T01:23:43.035Z,2.00
2019-03-13T01:26:11.639Z,2.30
2019-03-13T01:28:40.215Z,2.17
2019-03-13T01:31:24.968Z,1.70
2019-03-13T01:33:55.533Z,2.00
2019-03-13T01:36:24.062Z,1.90
2019-03-13T01:38:52.662Z,2.10
2019-03-13T01:41:21.203Z,1.90
2019-03-13T01:43:49.633Z,1.93
2019-03-13T01:46:18.094Z,2.57
2019-03-13T01:48:46.529Z,1.97
2019-03-13T01:51:15.039Z,2.10
2019-03-13T01:53:43.474Z,1.97
2019-03-13T01:56:12.086Z,2.00
2019-03-13T01:58:40.563Z,2.20
2019-03-13T02:01:09.007Z,2.10
2019-03-13T02:03:37.634Z,1.83
2019-03-13T02:06:06.124Z,2.27
2019-03-13T02:08:34.654Z,1.80
2019-03-13T02:13:29.018Z,2.27
2019-03-13T02:15:57.471Z,1.83
2019-03-13T02:18:25.987Z,2.03
2019-03-13T02:20:54.619Z,1.60
2019-03-13T02:23:23.243Z,1.77
2019-03-13T02:25:51.783Z,1.97
2019-03-13T02:28:20.349Z,1.63
2019-03-13T02:30:48.861Z,2.20
2019-03-13T02:33:18.332Z,2.10
2019-03-13T02:35:46.855Z,2.20
2019-03-13T02:38:15.439Z,1.93
2019-03-13T02:40:44.135Z,1.67
2019-03-13T02:43:12.717Z,1.80
2019-03-13T02:45:41.271Z,2.40
2019-03-13T02:48:09.799Z,2.20
2019-03-13T02:50:38.344Z,2.37
2019-03-13T02:53:06.953Z,3.30
2019-03-13T02:55:35.609Z,2.60
2019-03-13T02:58:04.338Z,2.73
2019-03-13T03:01:04.151Z,2.20
2019-03-13T03:03:35.541Z,1.87
2019-03-13T03:06:04.150Z,2.30
2019-03-13T03:08:32.732Z,1.97
2019-03-13T03:11:01.329Z,2.33
2019-03-13T03:13:30.972Z,2.10
2019-03-13T03:15:59.466Z,1.50
2019-03-13T03:18:28.053Z,1.30
2019-03-13T03:20:56.670Z,1.20
2019-03-13T03:23:25.242Z,0.80
2019-03-13T03:25:53.792Z,1.17
2019-03-13T03:28:22.358Z,1.23
2019-03-13T03:30:51.163Z,0.97
2019-03-13T03:33:19.762Z,0.70
2019-03-13T03:35:48.333Z,0.37
2019-03-13T03:38:16.863Z,0.20
2019-03-13T03:40:45.506Z,0.20
2019-03-13T03:43:14.335Z,0.60
2019-03-13T03:45:42.897Z,0.20
2019-03-13T03:48:11.502Z,0.10
2019-03-13T03:50:40.189Z,0.00
2019-03-13T03:53:08.847Z,0.10
2019-03-13T03:55:37.392Z,0.00
2019-03-13T03:58:05.976Z,0.00
2019-03-13T04:00:34.502Z,0.10
2019-03-13T04:03:02.985Z,0.00
2019-03-13T04:05:31.673Z,0.00
2019-03-13T04:08:00.343Z,0.00
2019-03-13T04:10:47.982Z,0.00
2019-03-13T04:13:16.646Z,0.10
2019-03-13T04:15:45.342Z,0.07
2019-03-13T04:18:13.975Z,0.00
2019-03-13T04:20:42.540Z,0.10
2019-03-13T04:23:30.210Z,0.10
2019-03-13T04:25:58.833Z,0.10
2019-03-13T04:28:27.382Z,0.10
2019-03-13T04:30:56.191Z,0.10
2019-03-13T04:33:28.040Z,0.10
2019-03-13T04:35:56.177Z,0.10
2019-03-13T04:38:24.743Z,0.20
2019-03-13T04:40:54.498Z,0.20
2019-03-13T04:43:23.069Z,0.10
2019-03-13T04:45:52.735Z,0.13
2019-03-13T04:48:21.277Z,0.20
2019-03-13T04:50:49.862Z,0.20
2019-03-13T04:53:18.402Z,0.20
2019-03-13T04:55:47.044Z,0.20
2019-03-13T04:58:15.559Z,0.20
2019-03-13T05:00:44.322Z,0.20
2019-03-13T05:03:12.901Z,0.30
2019-03-13T05:05:41.813Z,0.30
2019-03-13T05:08:11.474Z,0.40
2019-03-13T05:10:40.226Z,0.40
2019-03-13T05:13:08.853Z,0.30
2019-03-13T05:15:37.561Z,0.43
2019-03-13T05:18:06.211Z,0.40
2019-03-13T05:20:34.888Z,0.30
2019-03-13T05:23:03.524Z,0.60
2019-03-13T05:25:32.094Z,0.60
2019-03-13T05:28:00.996Z,0.50
2019-03-13T05:30:29.657Z,0.50
2019-03-13T05:32:58.390Z,0.60
2019-03-13T05:35:27.054Z,0.50
2019-03-13T05:37:55.823Z,0.90
2019-03-13T05:40:24.382Z,0.60
2019-03-13T05:42:52.945Z,0.80
2019-03-13T05:45:21.529Z,0.70
2019-03-13T05:47:50.294Z,0.60
2019-03-13T05:50:18.815Z,0.70
2019-03-13T05:52:47.426Z,0.60
2019-03-13T05:55:16.021Z,0.80
2019-03-13T05:57:44.640Z,0.60
2019-03-13T06:00:14.854Z,0.70
2019-03-13T06:02:43.490Z,0.43
2019-03-13T06:05:12.050Z,0.60
2019-03-13T06:07:41.647Z,0.40
2019-03-13T06:10:10.324Z,0.60
2019-03-13T06:12:38.878Z,0.60
2019-03-13T06:15:07.814Z,0.40
2019-03-13T06:17:36.273Z,0.40
2019-03-13T06:20:05.285Z,1.07
2019-03-13T06:22:33.854Z,0.50
2019-03-13T06:25:02.435Z,0.37
2019-03-13T06:27:30.954Z,0.30
2019-03-13T06:29:59.401Z,0.40
2019-03-13T06:32:27.934Z,0.40
2019-03-13T06:34:56.462Z,0.30
2019-03-13T06:37:25.066Z,0.20
2019-03-13T06:40:12.758Z,0.20
2019-03-13T06:42:43.311Z,0.33
2019-03-13T06:45:11.873Z,0.20
2019-03-13T06:47:40.478Z,0.20
2019-03-13T06:50:11.046Z,0.20
2019-03-13T06:52:39.820Z,0.30
2019-03-13T06:55:08.355Z,0.30
2019-03-13T06:57:37.087Z,0.43
2019-03-13T07:00:31.016Z,0.30
2019-03-13T07:03:18.717Z,0.30
2019-03-13T07:05:54.727Z,0.20
2019-03-13T07:08:51.883Z,0.20
2019-03-13T07:11:45.726Z,0.23
2019-03-13T07:14:36.260Z,0.30
2019-03-13T07:17:36.037Z,0.20
2019-03-13T07:20:23.529Z,0.30
2019-03-13T07:23:09.989Z,0.27
2019-03-13T07:25:45.108Z,0.30
2019-03-13T07:28:20.077Z,0.30
2019-03-13T07:31:07.869Z,0.30
2019-03-13T07:34:08.133Z,0.40
2019-03-13T07:37:04.705Z,0.40
2019-03-13T07:40:04.574Z,0.30
2019-03-13T07:42:50.994Z,0.40
2019-03-13T07:45:38.704Z,0.30
2019-03-13T07:48:44.567Z,0.20
2019-03-13T07:51:30.718Z,0.20
2019-03-13T07:54:24.090Z,0.30
2019-03-13T07:57:09.765Z,0.50
2019-03-13T07:59:57.383Z,0.50
2019-03-13T08:02:50.894Z,0.40
2019-03-13T08:05:35.563Z,0.50
2019-03-13T08:08:21.925Z,0.40
2019-03-13T08:11:23.226Z,0.50
2019-03-13T08:14:19.828Z,0.20
2019-03-13T08:17:16.559Z,0.30
2019-03-13T08:20:12.445Z,0.40
2019-03-13T08:22:59.862Z,0.27
2019-03-13T08:26:06.206Z,0.30
2019-03-13T08:28:57.551Z,0.20
2019-03-13T08:31:40.929Z,0.20
2019-03-13T08:34:31.442Z,0.27
2019-03-13T08:37:22.855Z,0.30
2019-03-13T08:39:58.868Z,0.10
2019-03-13T08:42:46.640Z,0.30
2019-03-13T08:45:22.746Z,0.20
2019-03-13T08:48:09.117Z,0.20
2019-03-13T08:50:41.837Z,0.20
2019-03-13T08:53:18.562Z,0.40
2019-03-13T08:56:06.375Z,0.40
2019-03-13T08:58:59.976Z,0.10
2019-03-13T09:01:56.577Z,0.20
2019-03-13T09:04:56.317Z,0.30
2019-03-13T09:07:40.047Z,0.20
2019-03-13T09:10:28.139Z,0.20
2019-03-13T09:13:13.354Z,0.20
2019-03-13T09:15:52.094Z,0.13
2019-03-13T09:18:44.321Z,0.20
2019-03-13T09:21:40.906Z,0.10
2019-03-13T09:24:17.809Z,0.20
2019-03-13T09:27:04.941Z,0.20
2019-03-13T09:29:55.870Z,0.40
2019-03-13T09:32:41.861Z,0.20
2019-03-13T09:35:41.906Z,0.40
2019-03-13T09:38:28.348Z,0.30
2019-03-13T09:41:06.739Z,0.30
2019-03-13T09:43:48.301Z,0.30
2019-03-13T09:46:23.644Z,0.10
2019-03-13T09:49:14.980Z,0.20
2019-03-13T09:51:50.945Z,0.23
2019-03-13T09:54:50.805Z,0.40
2019-03-13T09:57:37.065Z,0.27
2019-03-13T10:00:22.416Z,0.10
2019-03-13T10:03:10.165Z,0.10
2019-03-13T10:05:49.032Z,0.20
2019-03-13T10:08:27.565Z,0.20
2019-03-13T10:11:17.150Z,0.20
2019-03-13T10:13:55.302Z,0.10
2019-03-13T10:16:44.422Z,0.30
2019-03-13T10:19:32.355Z,0.10
2019-03-13T10:22:18.717Z,0.10
2019-03-13T10:24:57.959Z,0.30
2019-03-13T10:28:03.794Z,0.20
2019-03-13T10:30:39.939Z,0.10
2019-03-13T10:33:17.651Z,0.30
2019-03-13T10:35:54.430Z,0.47
2019-03-13T10:38:39.269Z,0.50
2019-03-13T10:41:20.242Z,0.40
2019-03-13T10:44:07.954Z,0.40
2019-03-13T10:46:42.798Z,0.10
2019-03-13T10:49:29.215Z,0.20
2019-03-13T10:52:26.245Z,0.20
2019-03-13T10:55:07.401Z,0.10
2019-03-13T10:58:13.565Z,0.20
2019-03-13T11:00:55.461Z,0.20
2019-03-13T11:03:50.669Z,0.10
2019-03-13T11:06:54.049Z,0.20
2019-03-13T11:09:17.222Z,0.30
2019-03-13T11:11:59.997Z,0.20
2019-03-13T11:14:50.881Z,0.20
2019-03-13T11:17:38.021Z,0.30
2019-03-13T11:20:29.226Z,0.30
2019-03-13T11:23:22.713Z,0.20
2019-03-13T11:25:56.907Z,0.10
2019-03-13T11:28:34.400Z,0.20
2019-03-13T11:31:21.994Z,0.23
2019-03-13T11:34:25.087Z,0.20
2019-03-13T11:37:11.789Z,0.20
2019-03-13T11:40:17.649Z,0.30
2019-03-13T11:43:23.646Z,0.30
2019-03-13T11:46:11.364Z,0.20
2019-03-13T11:48:50.518Z,0.47
2019-03-13T11:51:36.790Z,0.20
2019-03-13T11:54:18.081Z,0.40
2019-03-13T11:57:04.362Z,0.10
2019-03-13T11:59:53.230Z,0.30
2019-03-13T12:02:40.970Z,0.50
2019-03-13T12:05:29.240Z,0.50
2019-03-13T12:08:32.279Z,0.23
2019-03-13T12:11:20.060Z,0.20
2019-03-13T12:14:22.896Z,0.20
2019-03-13T12:17:03.124Z,0.20
2019-03-13T12:19:56.887Z,0.20
2019-03-13T12:22:43.365Z,0.30
2019-03-13T12:25:19.354Z,0.13
2019-03-13T12:28:02.911Z,0.20
2019-03-13T12:30:56.530Z,0.30
2019-03-13T12:33:31.582Z,0.20
2019-03-13T12:36:12.519Z,0.43
2019-03-13T12:38:55.329Z,0.20
2019-03-13T12:41:41.749Z,0.40
2019-03-13T12:44:17.453Z,0.17
2019-03-13T12:46:59.462Z,0.50
2019-03-13T12:49:41.158Z,0.80
2019-03-13T12:52:27.512Z,0.30
2019-03-13T12:55:27.499Z,0.30
2019-03-13T12:58:14.381Z,0.20
2019-03-13T13:01:01.461Z,0.40
2019-03-13T13:03:39.361Z,0.10
2019-03-13T13:06:18.891Z,0.30
2019-03-13T13:08:59.153Z,0.50
2019-03-13T13:11:44.497Z,0.23
2019-03-13T13:14:31.236Z,0.40
2019-03-13T13:17:18.123Z,0.23
2019-03-13T13:19:46.673Z,0.40
2019-03-13T13:22:15.199Z,0.30
2019-03-13T13:24:43.882Z,1.00
2019-03-13T13:27:12.433Z,0.23
2019-03-13T13:29:41.030Z,0.23
2019-03-13T13:32:09.602Z,0.30
2019-03-13T13:34:38.338Z,0.30
2019-03-13T13:37:07.068Z,0.30
2019-03-13T13:39:35.521Z,0.30
2019-03-13T13:42:04.090Z,0.40
2019-03-13T13:44:32.868Z,0.30
2019-03-13T13:47:01.408Z,0.23
2019-03-13T13:49:29.922Z,0.40
2019-03-13T13:51:58.518Z,0.20
2019-03-13T13:54:27.154Z,0.47
2019-03-13T13:56:55.713Z,0.30
2019-03-13T13:59:24.307Z,0.10
2019-03-13T14:01:52.938Z,0.10
2019-03-13T14:04:21.552Z,0.20
2019-03-13T14:06:50.089Z,0.20
2019-03-13T14:09:18.671Z,0.40
2019-03-13T14:11:47.277Z,0.20
2019-03-13T14:14:15.957Z,0.20
2019-03-13T14:16:44.593Z,0.40
2019-03-13T14:19:13.145Z,0.30
2019-03-13T14:21:41.883Z,0.30
2019-03-13T14:24:10.509Z,0.60
2019-03-13T14:26:39.012Z,0.30
2019-03-13T14:29:06.936Z,0.87
2019-03-13T14:31:35.535Z,0.50
2019-03-13T14:34:04.087Z,0.43
2019-03-13T14:36:32.676Z,0.20
2019-03-13T14:39:01.314Z,0.50
2019-03-13T14:41:29.833Z,0.17
2019-03-13T14:43:58.406Z,0.30
2019-03-13T14:46:26.990Z,0.10
2019-03-13T14:48:55.425Z,0.20
2019-03-13T14:51:23.986Z,0.20
2019-03-13T14:53:52.861Z,0.30
2019-03-13T14:56:21.393Z,0.30
2019-03-13T14:58:51.063Z,0.20
2019-03-13T15:01:20.710Z,0.30
2019-03-13T15:03:49.174Z,0.20
2019-03-13T15:06:17.638Z,0.20
2019-03-13T15:08:46.176Z,0.20
2019-03-13T15:11:14.742Z,0.50
2019-03-13T15:13:43.895Z,0.40
2019-03-13T15:16:12.485Z,0.40
2019-03-13T15:18:41.128Z,0.30
2019-03-13T15:21:09.674Z,0.20
2019-03-13T15:23:38.569Z,0.20
2019-03-13T15:26:07.862Z,0.53
2019-03-13T15:28:36.518Z,0.47
2019-03-13T15:31:07.199Z,0.40
2019-03-13T15:33:35.966Z,0.43
2019-03-13T15:36:04.593Z,0.37
2019-03-13T15:38:33.219Z,0.40
2019-03-13T15:41:01.819Z,0.40
2019-03-13T15:43:30.422Z,0.40
2019-03-13T15:45:58.970Z,0.40
2019-03-13T15:48:27.554Z,0.40
2019-03-13T15:50:56.259Z,0.40
2019-03-13T15:53:24.858Z,0.40
2019-03-13T15:55:53.469Z,0.50
2019-03-13T15:58:22.113Z,0.33
2019-03-13T16:00:50.685Z,0.30
2019-03-13T16:03:19.554Z,1.00
2019-03-13T16:05:48.094Z,0.40
2019-03-13T16:08:16.742Z,0.40
2019-03-13T16:10:45.303Z,0.37
2019-03-13T16:13:13.845Z,0.40
2019-03-13T16:15:45.889Z,0.50
2019-03-13T16:18:13.035Z,0.40
2019-03-13T16:20:41.645Z,0.20
2019-03-13T16:23:10.224Z,0.30
2019-03-13T16:25:38.938Z,0.70
2019-03-13T16:28:07.599Z,0.30
2019-03-13T16:30:38.975Z,0.30
2019-03-13T16:33:07.554Z,0.40
2019-03-13T16:35:36.063Z,0.50
2019-03-13T16:38:04.774Z,0.57
2019-03-13T16:40:33.361Z,0.43
2019-03-13T16:43:01.970Z,0.60
2019-03-13T16:45:30.553Z,0.60
2019-03-13T16:47:59.165Z,0.50
2019-03-13T16:50:27.788Z,0.40
2019-03-13T16:52:56.445Z,0.40
2019-03-13T16:55:24.966Z,0.47
2019-03-13T16:57:53.570Z,0.30
2019-03-13T17:00:22.745Z,1.20
2019-03-13T17:02:51.461Z,0.40
2019-03-13T17:05:20.122Z,0.50
2019-03-13T17:07:49.999Z,0.50
2019-03-13T17:10:19.550Z,0.40
2019-03-13T17:12:48.151Z,0.50
2019-03-13T17:15:17.589Z,0.47
2019-03-13T17:17:46.310Z,0.60
2019-03-13T17:20:15.895Z,0.50
2019-03-13T17:22:44.427Z,0.70
2019-03-13T17:25:13.643Z,0.60
2019-03-13T17:27:42.272Z,0.50
2019-03-13T17:30:12.680Z,0.43
2019-03-13T17:32:41.236Z,1.00
2019-03-13T17:35:09.792Z,0.47
2019-03-13T17:37:38.342Z,0.53
2019-03-13T17:40:08.277Z,0.50
2019-03-13T17:42:36.863Z,0.30
2019-03-13T17:45:06.817Z,0.50
2019-03-13T17:47:35.398Z,0.53
2019-03-13T17:50:04.326Z,0.60
2019-03-13T17:52:33.040Z,0.50
2019-03-13T17:55:01.936Z,0.50
2019-03-13T17:57:30.550Z,0.40
2019-03-13T17:59:59.348Z,1.03
2019-03-13T18:02:28.074Z,0.83
2019-03-13T18:04:56.728Z,0.70
2019-03-13T18:07:25.348Z,0.90
2019-03-13T18:09:53.946Z,0.80
2019-03-13T18:12:22.614Z,0.50
2019-03-13T18:14:51.197Z,0.50
2019-03-13T18:17:19.845Z,0.70
2019-03-13T18:19:50.154Z,0.60
2019-03-13T18:22:18.991Z,0.37
2019-03-13T18:24:47.727Z,0.97
2019-03-13T18:27:16.356Z,0.63
2019-03-13T18:29:45.053Z,0.70
2019-03-13T18:32:13.658Z,1.17
2019-03-13T18:34:42.266Z,0.70
2019-03-13T18:37:10.989Z,0.60
2019-03-13T18:39:39.589Z,0.73
2019-03-13T18:42:08.278Z,0.70
2019-03-13T18:44:38.094Z,0.67
2019-03-13T18:47:06.925Z,0.60
2019-03-13T18:49:37.924Z,0.80
2019-03-13T18:52:06.634Z,1.17
2019-03-13T18:54:35.519Z,0.80
2019-03-13T18:57:04.342Z,1.20
2019-03-13T18:59:33.137Z,1.17
2019-03-13T19:02:01.966Z,0.80
2019-03-13T19:04:30.698Z,0.93
2019-03-13T19:07:00.300Z,0.80
2019-03-13T19:09:30.028Z,0.87
2019-03-13T19:11:58.867Z,0.90
2019-03-13T19:14:29.340Z,0.77
2019-03-13T19:16:57.964Z,1.27
2019-03-13T19:19:26.653Z,0.80
2019-03-13T19:21:55.353Z,0.60
2019-03-13T19:24:23.853Z,1.03
2019-03-13T19:26:52.568Z,0.93
2019-03-13T19:29:21.302Z,1.00
2019-03-13T19:31:49.893Z,1.23
2019-03-13T19:34:18.501Z,1.40
2019-03-13T19:36:47.664Z,1.05
2019-03-13T19:39:16.211Z,1.10
2019-03-13T19:41:44.884Z,0.80
2019-03-13T19:44:13.554Z,1.00
2019-03-13T19:46:42.282Z,0.90
2019-03-13T19:49:10.820Z,0.77
2019-03-13T19:51:39.563Z,0.97
2019-03-13T19:54:08.333Z,0.60
2019-03-13T19:56:36.996Z,0.97
2019-03-13T19:59:05.675Z,0.70
2019-03-13T20:01:34.455Z,0.80
2019-03-13T20:04:03.230Z,0.73
2019-03-13T20:06:41.598Z,1.07
2019-03-13T20:09:02.185Z,0.43
2019-03-13T20:11:30.757Z,0.63
2019-03-13T20:13:59.346Z,0.80
2019-03-13T20:16:28.326Z,0.47
2019-03-13T20:18:56.957Z,0.43
2019-03-13T20:21:25.600Z,0.63
2019-03-13T20:23:54.305Z,0.70
2019-03-13T20:26:23.034Z,0.50
2019-03-13T20:28:51.717Z,0.70
2019-03-13T20:31:20.429Z,0.60
2019-03-13T20:33:48.993Z,0.60
2019-03-13T20:36:17.609Z,0.83
2019-03-13T20:38:47.452Z,0.60
2019-03-13T20:41:16.157Z,0.83
2019-03-13T20:43:45.945Z,0.70
2019-03-13T20:46:14.827Z,0.40
2019-03-13T20:48:43.457Z,0.97
2019-03-13T20:51:12.128Z,0.83
2019-03-13T20:53:40.733Z,1.20
2019-03-13T20:56:09.296Z,0.90
2019-03-13T20:58:38.096Z,0.70
2019-03-13T21:01:07.006Z,1.00
2019-03-13T21:03:35.744Z,0.60
2019-03-13T21:06:04.507Z,0.80
2019-03-13T21:08:33.176Z,0.70
2019-03-13T21:11:01.924Z,0.80
2019-03-13T21:13:31.708Z,0.90
2019-03-13T21:16:00.756Z,0.60
2019-03-13T21:18:29.823Z,0.60
2019-03-13T21:20:58.584Z,0.77
2019-03-13T21:23:27.445Z,0.50
2019-03-13T21:25:58.778Z,0.70
2019-03-13T21:28:27.421Z,0.70
2019-03-13T21:30:56.190Z,0.90
2019-03-13T21:33:24.934Z,0.83
2019-03-13T21:35:53.666Z,1.30
2019-03-13T21:38:22.364Z,0.90
2019-03-13T21:40:51.346Z,0.90
2019-03-13T21:43:19.994Z,0.80
2019-03-13T21:45:48.790Z,0.60
2019-03-13T21:48:17.426Z,1.10
2019-03-13T21:50:45.997Z,1.23
2019-03-13T21:53:14.831Z,1.63
2019-03-13T21:55:43.809Z,1.30
2019-03-13T21:58:12.635Z,1.43
2019-03-13T22:00:42.335Z,1.50
2019-03-13T22:03:11.173Z,1.03
2019-03-13T22:05:42.261Z,1.00
2019-03-13T22:08:10.856Z,0.63
2019-03-13T22:10:39.426Z,1.20
2019-03-13T22:13:08.046Z,1.27
2019-03-13T22:15:36.699Z,1.10
2019-03-13T22:18:05.354Z,0.90
2019-03-13T22:20:36.070Z,1.27
2019-03-13T22:23:04.593Z,0.70
2019-03-13T22:25:33.192Z,1.70
2019-03-13T22:28:01.797Z,1.20
2019-03-13T22:30:30.343Z,0.60
2019-03-13T22:32:59.062Z,1.40
2019-03-13T22:35:27.681Z,1.27
2019-03-13T22:37:56.438Z,0.80
2019-03-13T22:40:24.978Z,0.90
2019-03-13T22:42:53.539Z,1.00
2019-03-13T22:45:22.069Z,1.13
2019-03-13T22:47:50.702Z,0.80
2019-03-13T22:50:19.310Z,1.60
2019-03-13T22:52:47.825Z,0.77
2019-03-13T22:55:16.447Z,1.37
2019-03-13T22:57:45.163Z,1.10
2019-03-13T23:00:20.445Z,1.00
2019-03-13T23:02:49.071Z,1.00
2019-03-13T23:05:17.658Z,1.30
2019-03-13T23:07:46.197Z,1.10
2019-03-13T23:10:22.429Z,1.40
2019-03-13T23:12:50.991Z,1.10
2019-03-13T23:15:19.571Z,0.93
2019-03-13T23:17:48.165Z,1.23
2019-03-13T23:20:16.870Z,1.10
2019-03-13T23:22:45.509Z,1.47
2019-03-13T23:25:14.009Z,1.13
2019-03-13T23:27:42.510Z,1.20
2019-03-13T23:30:11.033Z,1.40
2019-03-13T23:32:39.518Z,1.10
2019-03-13T23:35:10.958Z,1.00
2019-03-13T23:37:39.386Z,0.90
2019-03-13T23:40:07.948Z,1.00
2019-03-13T23:42:36.563Z,0.90
2019-03-13T23:45:05.237Z,1.17
2019-03-13T23:47:33.724Z,0.73
2019-03-13T23:50:02.208Z,1.00
2019-03-13T23:52:30.785Z,1.00
2019-03-13T23:54:59.351Z,1.13
2019-03-13T23:57:27.980Z,1.47
2019-03-13T23:59:56.497Z,1.17
